sensor_id;sensor_type;location;lat;lon;timestamp;P1;durP1;ratioP1;P2;durP2;ratioP2
32094;SDS011;18608;53.688;10.748;2022-12-10T00:01:32;24.73;;;11.63;;
32094;SDS011;18608;53.688;10.748;2022-12-10T00:03:59;19.13;;;10.30;;
32094;SDS011;18608;53.688;10.748;2022-12-10T00:06:26;21.07;;;10.70;;
32094;SDS011;18608;53.688;10.748;2022-12-10T00:08:53;31.43;;;10.70;;
32094;SDS011;18608;53.688;10.748;2022-12-10T00:11:20;21.10;;;11.90;;
32094;SDS011;18608;53.688;10.748;2022-12-10T00:13:47;20.63;;;11.37;;
32094;SDS011;18608;53.688;10.748;2022-12-10T00:16:14;20.80;;;10.33;;
32094;SDS011;18608;53.688;10.748;2022-12-10T00:18:42;24.47;;;11.30;;
32094;SDS011;18608;53.688;10.748;2022-12-10T00:21:09;21.37;;;11.30;;
32094;SDS011;18608;53.688;10.748;2022-12-10T00:23:37;18.77;;;10.87;;
32094;SDS011;18608;53.688;10.748;2022-12-10T00:28:47;24.80;;;10.87;;
32094;SDS011;18608;53.688;10.748;2022-12-10T00:31:15;20.70;;;10.87;;
32094;SDS011;18608;53.688;10.748;2022-12-10T00:33:43;22.27;;;10.80;;
32094;SDS011;18608;53.688;10.748;2022-12-10T00:36:11;25.47;;;10.37;;
32094;SDS011;18608;53.688;10.748;2022-12-10T00:38:37;23.77;;;10.33;;
32094;SDS011;18608;53.688;10.748;2022-12-10T00:41:04;21.30;;;9.70;;
32094;SDS011;18608;53.688;10.748;2022-12-10T00:43:30;18.90;;;9.17;;
32094;SDS011;18608;53.688;10.748;2022-12-10T00:45:55;19.77;;;10.80;;
32094;SDS011;18608;53.688;10.748;2022-12-10T00:48:22;13.33;;;7.23;;
32094;SDS011;18608;53.688;10.748;2022-12-10T00:50:58;13.47;;;7.20;;
32094;SDS011;18608;53.688;10.748;2022-12-10T00:53:26;14.63;;;7.90;;
32094;SDS011;18608;53.688;10.748;2022-12-10T00:55:53;13.17;;;7.70;;
32094;SDS011;18608;53.688;10.748;2022-12-10T00:58:19;11.90;;;7.27;;
32094;SDS011;18608;53.688;10.748;2022-12-10T01:00:45;13.33;;;8.00;;
32094;SDS011;18608;53.688;10.748;2022-12-10T01:03:11;14.97;;;6.60;;
32094;SDS011;18608;53.688;10.748;2022-12-10T01:05:37;16.23;;;6.90;;
32094;SDS011;18608;53.688;10.748;2022-12-10T01:08:03;16.83;;;7.67;;
32094;SDS011;18608;53.688;10.748;2022-12-10T01:10:28;10.27;;;6.60;;
32094;SDS011;18608;53.688;10.748;2022-12-10T01:12:54;15.83;;;8.13;;
32094;SDS011;18608;53.688;10.748;2022-12-10T01:15:20;11.80;;;5.50;;
32094;SDS011;18608;53.688;10.748;2022-12-10T01:17:45;11.33;;;6.27;;
32094;SDS011;18608;53.688;10.748;2022-12-10T01:20:11;19.13;;;7.60;;
32094;SDS011;18608;53.688;10.748;2022-12-10T01:22:37;10.70;;;5.80;;
32094;SDS011;18608;53.688;10.748;2022-12-10T01:25:03;10.50;;;5.97;;
32094;SDS011;18608;53.688;10.748;2022-12-10T01:27:29;11.20;;;6.80;;
32094;SDS011;18608;53.688;10.748;2022-12-10T01:29:55;13.53;;;6.60;;
32094;SDS011;18608;53.688;10.748;2022-12-10T01:32:20;11.70;;;6.87;;
32094;SDS011;18608;53.688;10.748;2022-12-10T01:34:46;12.10;;;7.83;;
32094;SDS011;18608;53.688;10.748;2022-12-10T01:37:12;13.00;;;6.87;;
32094;SDS011;18608;53.688;10.748;2022-12-10T01:39:38;10.60;;;7.20;;
32094;SDS011;18608;53.688;10.748;2022-12-10T01:42:04;12.83;;;7.60;;
32094;SDS011;18608;53.688;10.748;2022-12-10T01:46:56;13.87;;;7.60;;
32094;SDS011;18608;53.688;10.748;2022-12-10T01:49:35;11.87;;;7.40;;
32094;SDS011;18608;53.688;10.748;2022-12-10T01:52:04;10.97;;;6.80;;
32094;SDS011;18608;53.688;10.748;2022-12-10T01:54:38;8.63;;;5.23;;
32094;SDS011;18608;53.688;10.748;2022-12-10T01:57:07;14.50;;;7.33;;
32094;SDS011;18608;53.688;10.748;2022-12-10T01:59:36;14.50;;;8.17;;
32094;SDS011;18608;53.688;10.748;2022-12-10T02:10:04;20.33;;;7.97;;
32094;SDS011;18608;53.688;10.748;2022-12-10T02:12:38;15.23;;;8.03;;
32094;SDS011;18608;53.688;10.748;2022-12-10T02:15:30;13.00;;;7.57;;
32094;SDS011;18608;53.688;10.748;2022-12-10T02:20:28;15.27;;;9.13;;
32094;SDS011;18608;53.688;10.748;2022-12-10T02:23:04;13.97;;;7.80;;
32094;SDS011;18608;53.688;10.748;2022-12-10T02:25:32;13.23;;;7.87;;
32094;SDS011;18608;53.688;10.748;2022-12-10T02:31:10;16.50;;;8.50;;
32094;SDS011;18608;53.688;10.748;2022-12-10T02:33:39;16.30;;;9.47;;
32094;SDS011;18608;53.688;10.748;2022-12-10T02:36:09;17.00;;;8.73;;
32094;SDS011;18608;53.688;10.748;2022-12-10T02:38:37;16.03;;;9.57;;
32094;SDS011;18608;53.688;10.748;2022-12-10T02:41:06;13.10;;;9.43;;
32094;SDS011;18608;53.688;10.748;2022-12-10T02:43:36;13.83;;;8.70;;
32094;SDS011;18608;53.688;10.748;2022-12-10T02:46:02;13.07;;;7.10;;
32094;SDS011;18608;53.688;10.748;2022-12-10T02:48:29;12.30;;;7.00;;
32094;SDS011;18608;53.688;10.748;2022-12-10T02:50:57;13.30;;;7.10;;
32094;SDS011;18608;53.688;10.748;2022-12-10T02:53:23;13.70;;;7.93;;
32094;SDS011;18608;53.688;10.748;2022-12-10T02:58:24;17.47;;;7.60;;
32094;SDS011;18608;53.688;10.748;2022-12-10T03:06:09;15.80;;;9.47;;
32094;SDS011;18608;53.688;10.748;2022-12-10T03:08:56;12.90;;;8.00;;
32094;SDS011;18608;53.688;10.748;2022-12-10T03:11:26;18.30;;;9.63;;
32094;SDS011;18608;53.688;10.748;2022-12-10T03:14:00;15.67;;;8.00;;
32094;SDS011;18608;53.688;10.748;2022-12-10T03:16:35;15.13;;;7.47;;
32094;SDS011;18608;53.688;10.748;2022-12-10T03:19:05;13.63;;;7.33;;
32094;SDS011;18608;53.688;10.748;2022-12-10T03:21:35;14.40;;;8.57;;
32094;SDS011;18608;53.688;10.748;2022-12-10T03:24:04;12.13;;;7.70;;
32094;SDS011;18608;53.688;10.748;2022-12-10T03:26:31;15.27;;;7.10;;
32094;SDS011;18608;53.688;10.748;2022-12-10T03:29:00;12.53;;;6.87;;
32094;SDS011;18608;53.688;10.748;2022-12-10T03:31:30;14.17;;;8.10;;
32094;SDS011;18608;53.688;10.748;2022-12-10T03:33:57;12.23;;;7.10;;
32094;SDS011;18608;53.688;10.748;2022-12-10T03:36:23;15.87;;;8.07;;
32094;SDS011;18608;53.688;10.748;2022-12-10T03:38:50;12.97;;;7.73;;
32094;SDS011;18608;53.688;10.748;2022-12-10T03:41:17;22.80;;;9.00;;
32094;SDS011;18608;53.688;10.748;2022-12-10T03:43:53;14.97;;;7.90;;
32094;SDS011;18608;53.688;10.748;2022-12-10T03:46:20;13.40;;;8.33;;
32094;SDS011;18608;53.688;10.748;2022-12-10T03:48:46;21.00;;;11.07;;
32094;SDS011;18608;53.688;10.748;2022-12-10T03:51:12;17.80;;;7.90;;
32094;SDS011;18608;53.688;10.748;2022-12-10T03:53:37;17.13;;;9.20;;
32094;SDS011;18608;53.688;10.748;2022-12-10T03:56:03;17.07;;;8.33;;
32094;SDS011;18608;53.688;10.748;2022-12-10T03:58:29;15.77;;;7.80;;
32094;SDS011;18608;53.688;10.748;2022-12-10T04:00:54;15.73;;;8.67;;
32094;SDS011;18608;53.688;10.748;2022-12-10T04:03:20;17.57;;;9.50;;
32094;SDS011;18608;53.688;10.748;2022-12-10T04:05:45;20.20;;;10.20;;
32094;SDS011;18608;53.688;10.748;2022-12-10T04:08:11;16.70;;;9.30;;
32094;SDS011;18608;53.688;10.748;2022-12-10T04:10:37;16.90;;;7.50;;
32094;SDS011;18608;53.688;10.748;2022-12-10T04:13:03;17.23;;;10.27;;
32094;SDS011;18608;53.688;10.748;2022-12-10T04:15:47;16.57;;;7.77;;
32094;SDS011;18608;53.688;10.748;2022-12-10T04:18:32;16.93;;;7.77;;
32094;SDS011;18608;53.688;10.748;2022-12-10T04:20:58;18.27;;;8.37;;
32094;SDS011;18608;53.688;10.748;2022-12-10T04:23:42;13.90;;;8.33;;
32094;SDS011;18608;53.688;10.748;2022-12-10T04:26:26;17.70;;;8.50;;
32094;SDS011;18608;53.688;10.748;2022-12-10T04:29:11;15.47;;;9.33;;
32094;SDS011;18608;53.688;10.748;2022-12-10T04:31:36;16.67;;;9.47;;
32094;SDS011;18608;53.688;10.748;2022-12-10T04:34:02;17.50;;;9.47;;
32094;SDS011;18608;53.688;10.748;2022-12-10T04:36:28;16.20;;;8.33;;
32094;SDS011;18608;53.688;10.748;2022-12-10T04:38:53;15.23;;;8.37;;
32094;SDS011;18608;53.688;10.748;2022-12-10T04:41:19;15.17;;;8.27;;
32094;SDS011;18608;53.688;10.748;2022-12-10T04:43:44;16.00;;;8.40;;
32094;SDS011;18608;53.688;10.748;2022-12-10T04:46:10;14.30;;;8.10;;
32094;SDS011;18608;53.688;10.748;2022-12-10T04:48:36;16.13;;;9.23;;
32094;SDS011;18608;53.688;10.748;2022-12-10T04:51:01;15.70;;;9.03;;
32094;SDS011;18608;53.688;10.748;2022-12-10T04:53:27;18.10;;;8.77;;
32094;SDS011;18608;53.688;10.748;2022-12-10T04:55:53;24.30;;;9.70;;
32094;SDS011;18608;53.688;10.748;2022-12-10T04:58:18;17.17;;;9.50;;
32094;SDS011;18608;53.688;10.748;2022-12-10T05:00:44;20.20;;;9.57;;
32094;SDS011;18608;53.688;10.748;2022-12-10T05:03:09;15.60;;;8.37;;
32094;SDS011;18608;53.688;10.748;2022-12-10T05:05:35;17.83;;;9.70;;
32094;SDS011;18608;53.688;10.748;2022-12-10T05:08:01;16.00;;;8.37;;
32094;SDS011;18608;53.688;10.748;2022-12-10T05:10:27;19.80;;;9.63;;
32094;SDS011;18608;53.688;10.748;2022-12-10T05:12:53;16.70;;;9.03;;
32094;SDS011;18608;53.688;10.748;2022-12-10T05:15:18;14.80;;;8.47;;
32094;SDS011;18608;53.688;10.748;2022-12-10T05:17:44;19.47;;;9.87;;
32094;SDS011;18608;53.688;10.748;2022-12-10T05:20:10;13.53;;;8.53;;
32094;SDS011;18608;53.688;10.748;2022-12-10T05:22:36;14.43;;;7.60;;
32094;SDS011;18608;53.688;10.748;2022-12-10T05:25:37;19.87;;;10.43;;
32094;SDS011;18608;53.688;10.748;2022-12-10T05:28:17;21.97;;;11.30;;
32094;SDS011;18608;53.688;10.748;2022-12-10T05:30:44;21.23;;;9.03;;
32094;SDS011;18608;53.688;10.748;2022-12-10T05:33:10;18.20;;;9.20;;
32094;SDS011;18608;53.688;10.748;2022-12-10T05:35:35;17.07;;;9.90;;
32094;SDS011;18608;53.688;10.748;2022-12-10T05:38:01;15.23;;;8.23;;
32094;SDS011;18608;53.688;10.748;2022-12-10T05:40:26;20.53;;;10.43;;
32094;SDS011;18608;53.688;10.748;2022-12-10T05:42:52;19.07;;;9.03;;
32094;SDS011;18608;53.688;10.748;2022-12-10T05:45:18;15.47;;;8.83;;
32094;SDS011;18608;53.688;10.748;2022-12-10T05:47:43;18.60;;;9.10;;
32094;SDS011;18608;53.688;10.748;2022-12-10T05:50:09;22.50;;;10.57;;
32094;SDS011;18608;53.688;10.748;2022-12-10T05:52:34;20.00;;;9.67;;
32094;SDS011;18608;53.688;10.748;2022-12-10T05:55:00;20.53;;;10.43;;
32094;SDS011;18608;53.688;10.748;2022-12-10T05:57:25;17.60;;;9.23;;
32094;SDS011;18608;53.688;10.748;2022-12-10T05:59:51;15.30;;;9.30;;
32094;SDS011;18608;53.688;10.748;2022-12-10T06:02:17;20.40;;;11.20;;
32094;SDS011;18608;53.688;10.748;2022-12-10T06:04:42;26.07;;;11.17;;
32094;SDS011;18608;53.688;10.748;2022-12-10T06:07:08;25.33;;;9.33;;
32094;SDS011;18608;53.688;10.748;2022-12-10T06:09:33;20.00;;;10.23;;
32094;SDS011;18608;53.688;10.748;2022-12-10T06:11:59;23.17;;;11.47;;
32094;SDS011;18608;53.688;10.748;2022-12-10T06:14:25;20.10;;;11.53;;
32094;SDS011;18608;53.688;10.748;2022-12-10T06:16:50;18.73;;;9.97;;
32094;SDS011;18608;53.688;10.748;2022-12-10T06:19:16;21.57;;;8.93;;
32094;SDS011;18608;53.688;10.748;2022-12-10T06:21:41;23.43;;;8.67;;
32094;SDS011;18608;53.688;10.748;2022-12-10T06:24:07;19.73;;;9.30;;
32094;SDS011;18608;53.688;10.748;2022-12-10T06:26:32;22.83;;;11.03;;
32094;SDS011;18608;53.688;10.748;2022-12-10T06:28:58;18.70;;;9.20;;
32094;SDS011;18608;53.688;10.748;2022-12-10T06:31:25;25.23;;;10.27;;
32094;SDS011;18608;53.688;10.748;2022-12-10T06:33:51;17.63;;;9.20;;
32094;SDS011;18608;53.688;10.748;2022-12-10T06:36:18;19.33;;;10.03;;
32094;SDS011;18608;53.688;10.748;2022-12-10T06:38:44;21.43;;;11.53;;
32094;SDS011;18608;53.688;10.748;2022-12-10T06:41:11;22.00;;;10.10;;
32094;SDS011;18608;53.688;10.748;2022-12-10T06:43:38;18.43;;;9.30;;
32094;SDS011;18608;53.688;10.748;2022-12-10T06:46:05;21.50;;;9.80;;
32094;SDS011;18608;53.688;10.748;2022-12-10T06:48:35;25.67;;;11.43;;
32094;SDS011;18608;53.688;10.748;2022-12-10T06:51:01;22.20;;;10.07;;
32094;SDS011;18608;53.688;10.748;2022-12-10T06:53:27;19.37;;;10.53;;
32094;SDS011;18608;53.688;10.748;2022-12-10T06:55:53;18.87;;;10.40;;
32094;SDS011;18608;53.688;10.748;2022-12-10T06:58:19;22.77;;;10.90;;
32094;SDS011;18608;53.688;10.748;2022-12-10T07:00:44;19.43;;;9.40;;
32094;SDS011;18608;53.688;10.748;2022-12-10T07:03:10;21.33;;;9.53;;
32094;SDS011;18608;53.688;10.748;2022-12-10T07:05:35;25.87;;;9.40;;
32094;SDS011;18608;53.688;10.748;2022-12-10T07:08:01;14.60;;;8.27;;
32094;SDS011;18608;53.688;10.748;2022-12-10T07:10:26;17.17;;;9.63;;
32094;SDS011;18608;53.688;10.748;2022-12-10T07:12:52;26.63;;;10.07;;
32094;SDS011;18608;53.688;10.748;2022-12-10T07:15:18;21.43;;;9.13;;
32094;SDS011;18608;53.688;10.748;2022-12-10T07:17:43;14.70;;;7.90;;
32094;SDS011;18608;53.688;10.748;2022-12-10T07:20:09;13.73;;;7.63;;
32094;SDS011;18608;53.688;10.748;2022-12-10T07:22:36;13.53;;;7.90;;
32094;SDS011;18608;53.688;10.748;2022-12-10T07:25:02;17.40;;;9.53;;
32094;SDS011;18608;53.688;10.748;2022-12-10T07:27:28;20.50;;;8.57;;
32094;SDS011;18608;53.688;10.748;2022-12-10T07:29:55;23.60;;;8.67;;
32094;SDS011;18608;53.688;10.748;2022-12-10T07:32:21;19.90;;;8.73;;
32094;SDS011;18608;53.688;10.748;2022-12-10T07:34:47;16.97;;;8.50;;
32094;SDS011;18608;53.688;10.748;2022-12-10T07:37:12;19.30;;;9.03;;
32094;SDS011;18608;53.688;10.748;2022-12-10T07:39:38;18.53;;;8.80;;
32094;SDS011;18608;53.688;10.748;2022-12-10T07:42:03;15.53;;;7.53;;
32094;SDS011;18608;53.688;10.748;2022-12-10T07:44:29;20.20;;;8.70;;
32094;SDS011;18608;53.688;10.748;2022-12-10T07:46:55;21.13;;;9.57;;
32094;SDS011;18608;53.688;10.748;2022-12-10T07:49:21;23.37;;;9.70;;
32094;SDS011;18608;53.688;10.748;2022-12-10T07:51:47;17.87;;;8.73;;
32094;SDS011;18608;53.688;10.748;2022-12-10T07:54:14;17.43;;;9.40;;
32094;SDS011;18608;53.688;10.748;2022-12-10T07:56:40;22.93;;;8.50;;
32094;SDS011;18608;53.688;10.748;2022-12-10T07:59:06;19.43;;;7.53;;
32094;SDS011;18608;53.688;10.748;2022-12-10T08:01:32;19.90;;;7.80;;
32094;SDS011;18608;53.688;10.748;2022-12-10T08:03:58;17.57;;;8.30;;
32094;SDS011;18608;53.688;10.748;2022-12-10T08:06:24;17.23;;;7.17;;
32094;SDS011;18608;53.688;10.748;2022-12-10T08:08:51;18.50;;;9.70;;
32094;SDS011;18608;53.688;10.748;2022-12-10T08:11:17;18.03;;;8.50;;
32094;SDS011;18608;53.688;10.748;2022-12-10T08:13:44;20.90;;;9.00;;
32094;SDS011;18608;53.688;10.748;2022-12-10T08:16:15;13.27;;;8.00;;
32094;SDS011;18608;53.688;10.748;2022-12-10T08:18:42;17.30;;;8.07;;
32094;SDS011;18608;53.688;10.748;2022-12-10T08:21:13;19.20;;;7.60;;
32094;SDS011;18608;53.688;10.748;2022-12-10T08:23:41;19.13;;;7.27;;
32094;SDS011;18608;53.688;10.748;2022-12-10T08:26:08;18.57;;;9.63;;
32094;SDS011;18608;53.688;10.748;2022-12-10T08:28:38;15.50;;;8.70;;
32094;SDS011;18608;53.688;10.748;2022-12-10T08:31:04;17.83;;;9.03;;
32094;SDS011;18608;53.688;10.748;2022-12-10T08:33:34;14.90;;;8.63;;
32094;SDS011;18608;53.688;10.748;2022-12-10T08:36:01;14.47;;;8.30;;
32094;SDS011;18608;53.688;10.748;2022-12-10T08:38:28;17.63;;;7.67;;
32094;SDS011;18608;53.688;10.748;2022-12-10T08:40:54;18.50;;;8.83;;
32094;SDS011;18608;53.688;10.748;2022-12-10T08:43:20;20.87;;;9.33;;
32094;SDS011;18608;53.688;10.748;2022-12-10T08:45:45;15.20;;;7.73;;
32094;SDS011;18608;53.688;10.748;2022-12-10T08:48:11;14.07;;;7.60;;
32094;SDS011;18608;53.688;10.748;2022-12-10T08:50:37;12.67;;;6.87;;
32094;SDS011;18608;53.688;10.748;2022-12-10T08:53:03;15.90;;;6.47;;
32094;SDS011;18608;53.688;10.748;2022-12-10T08:55:29;15.50;;;8.50;;
32094;SDS011;18608;53.688;10.748;2022-12-10T08:57:58;16.90;;;8.17;;
32094;SDS011;18608;53.688;10.748;2022-12-10T09:00:24;16.20;;;6.87;;
32094;SDS011;18608;53.688;10.748;2022-12-10T09:02:51;16.43;;;6.57;;
32094;SDS011;18608;53.688;10.748;2022-12-10T09:05:16;17.40;;;7.60;;
32094;SDS011;18608;53.688;10.748;2022-12-10T09:07:42;14.60;;;7.63;;
32094;SDS011;18608;53.688;10.748;2022-12-10T09:10:09;18.03;;;8.00;;
32094;SDS011;18608;53.688;10.748;2022-12-10T09:12:36;13.83;;;7.63;;
32094;SDS011;18608;53.688;10.748;2022-12-10T09:15:02;14.40;;;6.57;;
32094;SDS011;18608;53.688;10.748;2022-12-10T09:17:28;15.53;;;7.10;;
32094;SDS011;18608;53.688;10.748;2022-12-10T09:19:54;18.03;;;7.53;;
32094;SDS011;18608;53.688;10.748;2022-12-10T09:22:20;15.60;;;7.40;;
32094;SDS011;18608;53.688;10.748;2022-12-10T09:24:45;12.40;;;7.00;;
32094;SDS011;18608;53.688;10.748;2022-12-10T09:27:11;12.63;;;6.57;;
32094;SDS011;18608;53.688;10.748;2022-12-10T09:29:36;12.13;;;6.20;;
32094;SDS011;18608;53.688;10.748;2022-12-10T09:32:02;17.50;;;6.80;;
32094;SDS011;18608;53.688;10.748;2022-12-10T09:34:28;14.70;;;5.83;;
32094;SDS011;18608;53.688;10.748;2022-12-10T09:36:53;23.13;;;9.30;;
32094;SDS011;18608;53.688;10.748;2022-12-10T09:39:19;14.83;;;6.90;;
32094;SDS011;18608;53.688;10.748;2022-12-10T09:44:50;16.27;;;6.17;;
32094;SDS011;18608;53.688;10.748;2022-12-10T09:47:24;14.40;;;6.07;;
32094;SDS011;18608;53.688;10.748;2022-12-10T09:52:39;16.13;;;7.27;;
32094;SDS011;18608;53.688;10.748;2022-12-10T09:55:13;12.80;;;5.77;;
32094;SDS011;18608;53.688;10.748;2022-12-10T09:57:42;10.70;;;6.03;;
32094;SDS011;18608;53.688;10.748;2022-12-10T10:02:47;10.63;;;6.27;;
32094;SDS011;18608;53.688;10.748;2022-12-10T10:05:16;12.40;;;5.83;;
32094;SDS011;18608;53.688;10.748;2022-12-10T10:07:48;15.47;;;6.50;;
32094;SDS011;18608;53.688;10.748;2022-12-10T10:10:39;12.80;;;6.27;;
32094;SDS011;18608;53.688;10.748;2022-12-10T10:15:46;9.53;;;5.70;;
32094;SDS011;18608;53.688;10.748;2022-12-10T10:21:03;10.73;;;5.73;;
32094;SDS011;18608;53.688;10.748;2022-12-10T10:23:32;9.87;;;6.40;;
32094;SDS011;18608;53.688;10.748;2022-12-10T10:25:58;13.47;;;5.47;;
32094;SDS011;18608;53.688;10.748;2022-12-10T10:28:23;12.83;;;6.67;;
32094;SDS011;18608;53.688;10.748;2022-12-10T10:30:50;9.63;;;5.30;;
32094;SDS011;18608;53.688;10.748;2022-12-10T10:33:18;10.37;;;5.20;;
32094;SDS011;18608;53.688;10.748;2022-12-10T10:35:45;12.30;;;5.20;;
32094;SDS011;18608;53.688;10.748;2022-12-10T10:38:18;17.10;;;6.07;;
32094;SDS011;18608;53.688;10.748;2022-12-10T10:40:57;11.10;;;5.17;;
32094;SDS011;18608;53.688;10.748;2022-12-10T10:43:26;15.00;;;5.70;;
32094;SDS011;18608;53.688;10.748;2022-12-10T10:48:48;11.37;;;6.47;;
32094;SDS011;18608;53.688;10.748;2022-12-10T10:53:47;12.03;;;6.77;;
32094;SDS011;18608;53.688;10.748;2022-12-10T10:56:27;11.57;;;5.60;;
32094;SDS011;18608;53.688;10.748;2022-12-10T10:59:16;14.27;;;7.47;;
32094;SDS011;18608;53.688;10.748;2022-12-10T11:01:54;12.73;;;6.87;;
32094;SDS011;18608;53.688;10.748;2022-12-10T11:07:01;16.27;;;7.50;;
32094;SDS011;18608;53.688;10.748;2022-12-10T11:09:29;6.97;;;4.43;;
32094;SDS011;18608;53.688;10.748;2022-12-10T11:11:58;13.43;;;6.47;;
32094;SDS011;18608;53.688;10.748;2022-12-10T11:14:28;10.17;;;5.80;;
32094;SDS011;18608;53.688;10.748;2022-12-10T11:19:34;10.50;;;6.40;;
32094;SDS011;18608;53.688;10.748;2022-12-10T11:25:02;9.00;;;5.83;;
32094;SDS011;18608;53.688;10.748;2022-12-10T11:30:22;11.50;;;6.00;;
32094;SDS011;18608;53.688;10.748;2022-12-10T11:41:15;12.77;;;7.03;;
32094;SDS011;18608;53.688;10.748;2022-12-10T11:44:10;7.27;;;4.83;;
32094;SDS011;18608;53.688;10.748;2022-12-10T11:55:07;10.70;;;6.27;;
32094;SDS011;18608;53.688;10.748;2022-12-10T11:57:56;10.87;;;5.07;;
32094;SDS011;18608;53.688;10.748;2022-12-10T12:00:28;9.37;;;5.70;;
32094;SDS011;18608;53.688;10.748;2022-12-10T12:08:27;9.80;;;4.73;;
32094;SDS011;18608;53.688;10.748;2022-12-10T12:17:02;14.20;;;5.63;;
32094;SDS011;18608;53.688;10.748;2022-12-10T12:19:36;10.30;;;5.23;;
32094;SDS011;18608;53.688;10.748;2022-12-10T12:25:06;11.57;;;6.10;;
32094;SDS011;18608;53.688;10.748;2022-12-10T12:27:43;14.33;;;5.40;;
32094;SDS011;18608;53.688;10.748;2022-12-10T12:30:20;8.97;;;4.80;;
32094;SDS011;18608;53.688;10.748;2022-12-10T12:35:41;12.30;;;6.33;;
32094;SDS011;18608;53.688;10.748;2022-12-10T12:43:23;13.57;;;6.80;;
32094;SDS011;18608;53.688;10.748;2022-12-10T12:45:57;10.03;;;5.67;;
32094;SDS011;18608;53.688;10.748;2022-12-10T12:48:40;14.33;;;8.17;;
32094;SDS011;18608;53.688;10.748;2022-12-10T12:53:51;10.40;;;6.63;;
32094;SDS011;18608;53.688;10.748;2022-12-10T12:56:23;11.07;;;6.20;;
32094;SDS011;18608;53.688;10.748;2022-12-10T13:04:56;16.30;;;7.87;;
32094;SDS011;18608;53.688;10.748;2022-12-10T13:07:26;15.80;;;6.13;;
32094;SDS011;18608;53.688;10.748;2022-12-10T13:12:32;9.13;;;5.70;;
32094;SDS011;18608;53.688;10.748;2022-12-10T13:18:00;8.37;;;5.43;;
32094;SDS011;18608;53.688;10.748;2022-12-10T13:21:15;9.80;;;6.00;;
32094;SDS011;18608;53.688;10.748;2022-12-10T13:24:07;10.80;;;4.93;;
32094;SDS011;18608;53.688;10.748;2022-12-10T13:26:34;9.20;;;5.20;;
32094;SDS011;18608;53.688;10.748;2022-12-10T13:34:42;16.10;;;8.00;;
32094;SDS011;18608;53.688;10.748;2022-12-10T13:37:27;11.97;;;7.10;;
32094;SDS011;18608;53.688;10.748;2022-12-10T13:47:48;11.60;;;6.73;;
32094;SDS011;18608;53.688;10.748;2022-12-10T13:55:34;8.93;;;5.60;;
32094;SDS011;18608;53.688;10.748;2022-12-10T14:04:05;10.50;;;5.00;;
32094;SDS011;18608;53.688;10.748;2022-12-10T14:06:46;8.97;;;5.37;;
32094;SDS011;18608;53.688;10.748;2022-12-10T14:14:30;11.90;;;5.17;;
32094;SDS011;18608;53.688;10.748;2022-12-10T14:17:18;9.83;;;5.20;;
32094;SDS011;18608;53.688;10.748;2022-12-10T14:19:46;8.07;;;5.40;;
32094;SDS011;18608;53.688;10.748;2022-12-10T14:22:16;7.00;;;4.33;;
32094;SDS011;18608;53.688;10.748;2022-12-10T14:24:55;11.47;;;5.23;;
32094;SDS011;18608;53.688;10.748;2022-12-10T14:27:26;7.80;;;4.53;;
32094;SDS011;18608;53.688;10.748;2022-12-10T14:29:57;10.20;;;4.93;;
32094;SDS011;18608;53.688;10.748;2022-12-10T14:32:42;9.43;;;5.30;;
32094;SDS011;18608;53.688;10.748;2022-12-10T14:35:13;9.13;;;4.83;;
32094;SDS011;18608;53.688;10.748;2022-12-10T14:37:41;12.83;;;5.60;;
32094;SDS011;18608;53.688;10.748;2022-12-10T14:40:12;10.00;;;5.03;;
32094;SDS011;18608;53.688;10.748;2022-12-10T14:42:59;12.63;;;5.50;;
32094;SDS011;18608;53.688;10.748;2022-12-10T14:45:30;10.73;;;5.10;;
32094;SDS011;18608;53.688;10.748;2022-12-10T14:48:21;7.33;;;3.83;;
32094;SDS011;18608;53.688;10.748;2022-12-10T14:50:47;7.53;;;4.33;;
32094;SDS011;18608;53.688;10.748;2022-12-10T14:53:22;8.70;;;5.47;;
32094;SDS011;18608;53.688;10.748;2022-12-10T14:55:50;7.70;;;4.90;;
32094;SDS011;18608;53.688;10.748;2022-12-10T14:58:30;9.37;;;3.73;;
32094;SDS011;18608;53.688;10.748;2022-12-10T15:01:06;9.37;;;5.27;;
32094;SDS011;18608;53.688;10.748;2022-12-10T15:03:39;9.60;;;5.03;;
32094;SDS011;18608;53.688;10.748;2022-12-10T15:06:12;7.70;;;4.17;;
32094;SDS011;18608;53.688;10.748;2022-12-10T15:08:41;15.87;;;5.53;;
32094;SDS011;18608;53.688;10.748;2022-12-10T15:11:10;9.80;;;4.97;;
32094;SDS011;18608;53.688;10.748;2022-12-10T15:13:41;6.10;;;3.93;;
32094;SDS011;18608;53.688;10.748;2022-12-10T15:16:19;7.70;;;4.77;;
32094;SDS011;18608;53.688;10.748;2022-12-10T15:18:53;6.30;;;4.77;;
32094;SDS011;18608;53.688;10.748;2022-12-10T15:21:20;10.63;;;6.03;;
32094;SDS011;18608;53.688;10.748;2022-12-10T15:23:48;9.70;;;4.60;;
32094;SDS011;18608;53.688;10.748;2022-12-10T15:26:19;10.10;;;5.10;;
32094;SDS011;18608;53.688;10.748;2022-12-10T15:28:47;6.20;;;3.83;;
32094;SDS011;18608;53.688;10.748;2022-12-10T15:33:57;7.37;;;3.93;;
32094;SDS011;18608;53.688;10.748;2022-12-10T15:36:30;6.50;;;4.47;;
32094;SDS011;18608;53.688;10.748;2022-12-10T15:39:04;8.20;;;4.47;;
32094;SDS011;18608;53.688;10.748;2022-12-10T15:41:48;11.00;;;5.20;;
32094;SDS011;18608;53.688;10.748;2022-12-10T15:46:51;6.57;;;5.17;;
32094;SDS011;18608;53.688;10.748;2022-12-10T15:49:27;8.87;;;4.37;;
32094;SDS011;18608;53.688;10.748;2022-12-10T15:51:53;9.57;;;4.30;;
32094;SDS011;18608;53.688;10.748;2022-12-10T15:54:20;8.00;;;3.80;;
32094;SDS011;18608;53.688;10.748;2022-12-10T15:56:46;6.43;;;4.07;;
32094;SDS011;18608;53.688;10.748;2022-12-10T15:59:12;9.83;;;5.60;;
32094;SDS011;18608;53.688;10.748;2022-12-10T16:01:39;10.20;;;5.43;;
32094;SDS011;18608;53.688;10.748;2022-12-10T16:04:04;7.60;;;4.27;;
32094;SDS011;18608;53.688;10.748;2022-12-10T16:06:30;9.47;;;7.00;;
32094;SDS011;18608;53.688;10.748;2022-12-10T16:08:56;9.40;;;5.57;;
32094;SDS011;18608;53.688;10.748;2022-12-10T16:11:21;7.27;;;5.30;;
32094;SDS011;18608;53.688;10.748;2022-12-10T16:13:48;10.07;;;5.07;;
32094;SDS011;18608;53.688;10.748;2022-12-10T16:16:17;6.00;;;4.63;;
32094;SDS011;18608;53.688;10.748;2022-12-10T16:18:43;9.00;;;5.73;;
32094;SDS011;18608;53.688;10.748;2022-12-10T16:21:09;9.90;;;6.00;;
32094;SDS011;18608;53.688;10.748;2022-12-10T16:23:34;6.70;;;4.53;;
32094;SDS011;18608;53.688;10.748;2022-12-10T16:26:02;5.57;;;4.07;;
32094;SDS011;18608;53.688;10.748;2022-12-10T16:28:30;7.90;;;4.93;;
32094;SDS011;18608;53.688;10.748;2022-12-10T16:30:56;8.43;;;5.60;;
32094;SDS011;18608;53.688;10.748;2022-12-10T16:33:24;4.77;;;3.80;;
32094;SDS011;18608;53.688;10.748;2022-12-10T16:35:52;13.27;;;5.33;;
32094;SDS011;18608;53.688;10.748;2022-12-10T16:38:18;6.17;;;4.73;;
32094;SDS011;18608;53.688;10.748;2022-12-10T16:40:44;12.20;;;6.90;;
32094;SDS011;18608;53.688;10.748;2022-12-10T16:43:21;12.53;;;8.20;;
32094;SDS011;18608;53.688;10.748;2022-12-10T16:45:48;10.50;;;7.70;;
32094;SDS011;18608;53.688;10.748;2022-12-10T16:48:14;12.37;;;8.00;;
32094;SDS011;18608;53.688;10.748;2022-12-10T16:50:41;10.23;;;7.20;;
32094;SDS011;18608;53.688;10.748;2022-12-10T16:53:22;17.50;;;8.27;;
32094;SDS011;18608;53.688;10.748;2022-12-10T16:55:50;8.77;;;5.43;;
32094;SDS011;18608;53.688;10.748;2022-12-10T16:58:17;9.77;;;6.93;;
32094;SDS011;18608;53.688;10.748;2022-12-10T17:00:44;9.10;;;7.33;;